Happy Valentine's Day! 

Flight Track Log - Related Links

Times and Time Zones

All times are in EDT time to prevent confusion due to time zone crossing. See the LOF3416 flight status page for this flight to view local times or setup timezone preferences in your user account.


Time Position Orientation Groundspeed Altitude Reporting Facility
EDT Latitude Longitude Course Direction KTS MPH feet Rate Location/Type
Mon 10:29:59 PM 38.9000 -77.4667 288° West 175 201 3,300  Level Potomac TRACON
Mon 10:30:59 PM 38.8667 -77.5167 229° Southwest 225 259 5,600 2,337 Climbing Potomac TRACON
Mon 10:32:51 PM 38.8514 -77.6789 263° West 258 297 10,000 1,884 Climbing Washington Center
Mon 10:33:51 PM 38.8600 -77.7831 276° West 288 331 11,000 1,550 Climbing Washington Center
Mon 10:34:51 PM 38.8686 -77.8819 276° West 301 346 13,100 2,150 Climbing Washington Center
Mon 10:35:00 PM 38.8994 -78.0306 288° West  Level FlightAware Approximate
Mon 10:35:51 PM 38.8894 -77.9867 284° West 306 352 15,300  Level Washington Center
Mon 10:36:51 PM 38.9208 -78.0917 291° West 311 358 17,000 1,550 Climbing Washington Center
Mon 10:37:51 PM 38.9539 -78.1994 292° West 317 365 18,400 1,550 Climbing Washington Center
Mon 10:38:51 PM 38.9617 -78.3172 275° West 323 372 20,100 1,700 Climbing Washington Center
Mon 10:39:51 PM 38.9672 -78.4403 273° West 335 386 21,800 1,450 Climbing Washington Center
Mon 10:40:51 PM 38.9744 -78.5742 274° West 342 394 23,000 1,500 Climbing Washington Center
Mon 10:41:51 PM 38.9736 -78.6917 270° West 363 418 24,800 1,600 Climbing Washington Center
Mon 10:42:51 PM 38.9764 -78.8200 272° West 368 423 26,200 1,300 Climbing Washington Center
Mon 10:43:51 PM 38.9792 -78.9481 272° West 368 423 27,400 900 Climbing Washington Center
Mon 10:44:51 PM 38.9817 -79.0792 271° West 368 423 28,000 300 Climbing Washington Center
Mon 10:45:51 PM 38.9881 -79.2183 273° West 380 437 28,000  Level Washington Center
Mon 10:46:51 PM 38.9942 -79.3603 273° West 395 455 28,000  Level Washington Center
Mon 10:47:51 PM 38.9914 -79.5069 269° West 403 464 28,000  Level Washington Center
Mon 10:48:51 PM 39.0006 -79.6758 274° West 431 496 28,000  Level Washington Center
Mon 10:49:51 PM 39.0039 -79.8147 272° West 417 480 28,000  Level Washington Center
Mon 10:50:51 PM 39.0047 -79.9644 270° West 407 468 28,000  Level Washington Center
Mon 10:53:07 PM 39.0061 -80.2717 270° West 410 472 28,000  Level Indianapolis Center
Mon 10:54:08 PM 39.0094 -80.4178 272° West 409 471 28,000  Level Indianapolis Center
Mon 10:55:09 PM 39.0108 -80.5642 271° West 409 471 28,000  Level Indianapolis Center
Mon 10:56:10 PM 39.0294 -80.7356 278° West 410 472 28,000  Level Indianapolis Center
Mon 10:57:11 PM 39.0503 -80.8783 281° West 408 470 28,000  Level Indianapolis Center
Mon 10:58:12 PM 39.0714 -81.0214 281° West 409 471 28,000  Level Indianapolis Center
Mon 10:59:13 PM 39.0925 -81.1639 281° West 409 471 28,000  Level Indianapolis Center
Mon 11:00:15 PM 39.1125 -81.3047 280° West 403 464 28,000  Level Indianapolis Center
Mon 11:01:16 PM 39.1314 -81.4458 280° West 404 465 28,000  Level Indianapolis Center
Mon 11:02:17 PM 39.1517 -81.5869 281° West 404 465 28,000  Level Indianapolis Center
Mon 11:03:18 PM 39.1714 -81.7292 280° West 405 466 28,000 -197 Level Indianapolis Center
Mon 11:04:19 PM 39.1906 -81.8714 280° West 406 467 27,600 -1,024 Descending Indianapolis Center
Mon 11:05:21 PM 39.2133 -82.0383 280° West 396 456 25,900 -1,561 Descending Indianapolis Center
Mon 11:06:22 PM 39.2322 -82.1783 280° West 396 456 24,400 -1,475 Descending Indianapolis Center
Mon 11:07:23 PM 39.2506 -82.3181 280° West 397 457 22,900 -1,328 Descending Indianapolis Center
Mon 11:08:24 PM 39.2681 -82.4544 279° West 389 448 21,700 -1,475 Descending Indianapolis Center
Mon 11:09:25 PM 39.2864 -82.5969 279° West 372 428 19,900 -1,415 Descending Indianapolis Center
Mon 11:10:27 PM 39.3039 -82.7311 280° West 376 433 18,800 -976 Descending Indianapolis Center
Mon 11:11:28 PM 39.3208 -82.8661 279° West 377 434 17,900 -1,033 Descending Indianapolis Center
Mon 11:12:29 PM 39.3372 -82.9944 279° West 363 418 16,700 -1,230 Descending Indianapolis Center
Mon 11:13:30 PM 39.3525 -83.1208 279° West 353 406 15,400 -1,210 Descending Indianapolis Center
Mon 11:14:28 PM 39.3681 -83.2458 279° West 349 402 14,300 -1,171 Descending Indianapolis Center
Mon 11:15:33 PM 39.3836 -83.3711 279° West 348 400 13,000 -1,095 Descending Indianapolis Center
Mon 11:16:34 PM 39.3986 -83.4925 279° West 340 391 12,000 -934 Descending Indianapolis Center
Mon 11:17:35 PM 39.4136 -83.6092 279° West 327 376 11,100 -492 Descending Indianapolis Center
Mon 11:18:36 PM 39.4564 -83.7072 299° West 333 383 11,000 -295 Descending Indianapolis Center
Mon 11:19:37 PM 39.5278 -83.7708 326° Northwest 310 357 10,500 -1,200 Descending Indianapolis Center
Mon 11:20:31 PM 39.5875 -83.8211 327° Northwest 261 300 8,700 -1,759 Descending Indianapolis Center
Mon 11:21:50 PM 39.6683 -83.8883 327° Northwest 267 307 6,600 -1,500 Descending Indianapolis Center
Mon 11:22:39 PM 39.7158 -83.9269 328° Northwest 262 302 5,500 -1,211 Descending Indianapolis Center
Mon 11:23:39 PM 39.7808 -83.9814 327° Northwest 272 313 4,400 -744 Descending Indianapolis Center
Mon 11:24:40 PM 39.8436 -84.0358 326° Northwest 277 319 4,000 -393 Descending Indianapolis Center

Login

Don't have an account? Register now (free) for customized features, flight alerts, and more!